sensor_id;sensor_type;location;lat;lon;timestamp;P1;durP1;ratioP1;P2;durP2;ratioP2
20379;SDS011;10349;48.666;8.948;2024-03-25T00:01:33;2.47;;;2.30;;
20379;SDS011;10349;48.666;8.948;2024-03-25T00:03:59;2.30;;;2.13;;
20379;SDS011;10349;48.666;8.948;2024-03-25T00:06:24;2.37;;;2.13;;
20379;SDS011;10349;48.666;8.948;2024-03-25T00:08:51;1.57;;;1.47;;
20379;SDS011;10349;48.666;8.948;2024-03-25T00:11:17;2.40;;;2.20;;
20379;SDS011;10349;48.666;8.948;2024-03-25T00:13:42;2.60;;;2.40;;
20379;SDS011;10349;48.666;8.948;2024-03-25T00:16:08;3.20;;;2.60;;
20379;SDS011;10349;48.666;8.948;2024-03-25T00:18:34;1.57;;;1.20;;
20379;SDS011;10349;48.666;8.948;2024-03-25T00:20:59;2.23;;;2.03;;
20379;SDS011;10349;48.666;8.948;2024-03-25T00:23:25;4.77;;;2.60;;
20379;SDS011;10349;48.666;8.948;2024-03-25T00:25:50;14.73;;;2.93;;
20379;SDS011;10349;48.666;8.948;2024-03-25T00:28:17;4.20;;;2.63;;
20379;SDS011;10349;48.666;8.948;2024-03-25T00:30:44;2.43;;;2.23;;
20379;SDS011;10349;48.666;8.948;2024-03-25T00:33:10;8.13;;;2.63;;
20379;SDS011;10349;48.666;8.948;2024-03-25T00:35:36;3.30;;;1.87;;
20379;SDS011;10349;48.666;8.948;2024-03-25T00:38:02;2.47;;;2.20;;
20379;SDS011;10349;48.666;8.948;2024-03-25T00:40:27;2.17;;;1.80;;
20379;SDS011;10349;48.666;8.948;2024-03-25T00:42:54;2.83;;;1.80;;
20379;SDS011;10349;48.666;8.948;2024-03-25T00:45:20;3.50;;;2.00;;
20379;SDS011;10349;48.666;8.948;2024-03-25T00:47:45;10.50;;;2.23;;
20379;SDS011;10349;48.666;8.948;2024-03-25T00:50:11;2.93;;;2.20;;
20379;SDS011;10349;48.666;8.948;2024-03-25T00:52:37;2.33;;;2.13;;
20379;SDS011;10349;48.666;8.948;2024-03-25T00:55:02;5.43;;;2.20;;
20379;SDS011;10349;48.666;8.948;2024-03-25T00:57:28;2.43;;;1.93;;
20379;SDS011;10349;48.666;8.948;2024-03-25T00:59:55;2.57;;;1.83;;
20379;SDS011;10349;48.666;8.948;2024-03-25T01:02:20;3.93;;;2.60;;
20379;SDS011;10349;48.666;8.948;2024-03-25T01:04:46;2.40;;;2.20;;
20379;SDS011;10349;48.666;8.948;2024-03-25T01:07:12;3.20;;;2.87;;
20379;SDS011;10349;48.666;8.948;2024-03-25T01:09:37;3.23;;;1.97;;
20379;SDS011;10349;48.666;8.948;2024-03-25T01:12:03;3.53;;;2.20;;
20379;SDS011;10349;48.666;8.948;2024-03-25T01:14:29;2.50;;;2.40;;
20379;SDS011;10349;48.666;8.948;2024-03-25T01:16:55;2.17;;;2.03;;
20379;SDS011;10349;48.666;8.948;2024-03-25T01:19:21;2.27;;;2.10;;
20379;SDS011;10349;48.666;8.948;2024-03-25T01:21:47;3.03;;;1.80;;
20379;SDS011;10349;48.666;8.948;2024-03-25T01:24:14;5.33;;;2.87;;
20379;SDS011;10349;48.666;8.948;2024-03-25T01:26:39;3.03;;;1.90;;
20379;SDS011;10349;48.666;8.948;2024-03-25T01:29:05;6.90;;;2.37;;
20379;SDS011;10349;48.666;8.948;2024-03-25T01:31:31;3.80;;;2.33;;
20379;SDS011;10349;48.666;8.948;2024-03-25T01:33:56;4.33;;;2.50;;
20379;SDS011;10349;48.666;8.948;2024-03-25T01:36:22;2.93;;;1.60;;
20379;SDS011;10349;48.666;8.948;2024-03-25T01:38:48;3.07;;;2.40;;
20379;SDS011;10349;48.666;8.948;2024-03-25T01:41:14;2.70;;;1.37;;
20379;SDS011;10349;48.666;8.948;2024-03-25T01:43:47;2.33;;;2.10;;
20379;SDS011;10349;48.666;8.948;2024-03-25T01:46:14;4.80;;;2.27;;
20379;SDS011;10349;48.666;8.948;2024-03-25T01:48:41;3.77;;;1.93;;
20379;SDS011;10349;48.666;8.948;2024-03-25T01:51:08;6.53;;;2.37;;
20379;SDS011;10349;48.666;8.948;2024-03-25T01:53:34;2.83;;;2.00;;
20379;SDS011;10349;48.666;8.948;2024-03-25T01:56:00;3.63;;;2.10;;
20379;SDS011;10349;48.666;8.948;2024-03-25T01:58:26;5.00;;;2.20;;
20379;SDS011;10349;48.666;8.948;2024-03-25T02:00:55;3.40;;;3.20;;
20379;SDS011;10349;48.666;8.948;2024-03-25T02:03:21;7.53;;;3.23;;
20379;SDS011;10349;48.666;8.948;2024-03-25T02:05:49;2.50;;;2.30;;
20379;SDS011;10349;48.666;8.948;2024-03-25T02:08:17;6.60;;;2.40;;
20379;SDS011;10349;48.666;8.948;2024-03-25T02:10:44;3.47;;;2.00;;
20379;SDS011;10349;48.666;8.948;2024-03-25T02:13:10;2.00;;;1.90;;
20379;SDS011;10349;48.666;8.948;2024-03-25T02:15:36;3.43;;;2.60;;
20379;SDS011;10349;48.666;8.948;2024-03-25T02:18:01;5.20;;;3.33;;
20379;SDS011;10349;48.666;8.948;2024-03-25T02:20:27;3.03;;;2.60;;
20379;SDS011;10349;48.666;8.948;2024-03-25T02:22:53;7.40;;;3.37;;
20379;SDS011;10349;48.666;8.948;2024-03-25T02:25:20;3.30;;;2.70;;
20379;SDS011;10349;48.666;8.948;2024-03-25T02:27:47;2.93;;;2.73;;
20379;SDS011;10349;48.666;8.948;2024-03-25T02:30:13;2.23;;;2.13;;
20379;SDS011;10349;48.666;8.948;2024-03-25T02:32:39;3.60;;;3.30;;
20379;SDS011;10349;48.666;8.948;2024-03-25T02:35:15;2.50;;;2.30;;
20379;SDS011;10349;48.666;8.948;2024-03-25T02:37:42;2.70;;;2.50;;
20379;SDS011;10349;48.666;8.948;2024-03-25T02:40:08;3.20;;;2.60;;
20379;SDS011;10349;48.666;8.948;2024-03-25T02:42:35;3.20;;;3.00;;
20379;SDS011;10349;48.666;8.948;2024-03-25T02:45:02;2.87;;;2.03;;
20379;SDS011;10349;48.666;8.948;2024-03-25T02:47:28;2.77;;;2.57;;
20379;SDS011;10349;48.666;8.948;2024-03-25T02:49:54;3.17;;;2.90;;
20379;SDS011;10349;48.666;8.948;2024-03-25T02:52:20;7.20;;;2.40;;
20379;SDS011;10349;48.666;8.948;2024-03-25T02:54:46;3.80;;;2.40;;
20379;SDS011;10349;48.666;8.948;2024-03-25T02:57:11;3.10;;;2.90;;
20379;SDS011;10349;48.666;8.948;2024-03-25T02:59:37;4.40;;;1.80;;
20379;SDS011;10349;48.666;8.948;2024-03-25T03:02:03;2.93;;;2.73;;
20379;SDS011;10349;48.666;8.948;2024-03-25T03:04:28;5.03;;;3.47;;
20379;SDS011;10349;48.666;8.948;2024-03-25T03:06:54;2.50;;;2.30;;
20379;SDS011;10349;48.666;8.948;2024-03-25T03:09:21;3.33;;;2.10;;
20379;SDS011;10349;48.666;8.948;2024-03-25T03:11:46;4.50;;;2.40;;
20379;SDS011;10349;48.666;8.948;2024-03-25T03:14:12;2.73;;;2.53;;
20379;SDS011;10349;48.666;8.948;2024-03-25T03:16:38;5.70;;;2.70;;
20379;SDS011;10349;48.666;8.948;2024-03-25T03:19:03;2.40;;;2.20;;
20379;SDS011;10349;48.666;8.948;2024-03-25T03:21:29;3.03;;;2.00;;
20379;SDS011;10349;48.666;8.948;2024-03-25T03:23:55;2.63;;;2.40;;
20379;SDS011;10349;48.666;8.948;2024-03-25T03:26:21;10.37;;;2.87;;
20379;SDS011;10349;48.666;8.948;2024-03-25T03:28:52;6.10;;;3.00;;
20379;SDS011;10349;48.666;8.948;2024-03-25T03:31:21;3.10;;;2.70;;
20379;SDS011;10349;48.666;8.948;2024-03-25T03:33:50;4.27;;;3.70;;
20379;SDS011;10349;48.666;8.948;2024-03-25T03:36:16;3.70;;;2.50;;
20379;SDS011;10349;48.666;8.948;2024-03-25T03:38:44;4.30;;;3.00;;
20379;SDS011;10349;48.666;8.948;2024-03-25T03:41:10;3.50;;;2.93;;
20379;SDS011;10349;48.666;8.948;2024-03-25T03:43:36;3.93;;;2.70;;
20379;SDS011;10349;48.666;8.948;2024-03-25T03:46:02;8.20;;;3.60;;
20379;SDS011;10349;48.666;8.948;2024-03-25T03:48:28;3.37;;;3.03;;
20379;SDS011;10349;48.666;8.948;2024-03-25T03:50:54;5.53;;;3.60;;
20379;SDS011;10349;48.666;8.948;2024-03-25T03:53:20;2.40;;;2.20;;
20379;SDS011;10349;48.666;8.948;2024-03-25T03:58:22;5.93;;;3.20;;
20379;SDS011;10349;48.666;8.948;2024-03-25T04:00:48;6.93;;;2.43;;
20379;SDS011;10349;48.666;8.948;2024-03-25T04:03:14;4.47;;;2.50;;
20379;SDS011;10349;48.666;8.948;2024-03-25T04:05:40;3.87;;;2.67;;
20379;SDS011;10349;48.666;8.948;2024-03-25T04:08:05;12.93;;;2.97;;
20379;SDS011;10349;48.666;8.948;2024-03-25T04:10:31;2.60;;;2.10;;
20379;SDS011;10349;48.666;8.948;2024-03-25T04:12:57;3.33;;;3.00;;
20379;SDS011;10349;48.666;8.948;2024-03-25T04:15:23;6.47;;;2.97;;
20379;SDS011;10349;48.666;8.948;2024-03-25T04:17:49;3.60;;;3.27;;
20379;SDS011;10349;48.666;8.948;2024-03-25T04:20:15;2.80;;;2.60;;
20379;SDS011;10349;48.666;8.948;2024-03-25T04:22:41;3.00;;;2.80;;
20379;SDS011;10349;48.666;8.948;2024-03-25T04:25:11;2.80;;;2.60;;
20379;SDS011;10349;48.666;8.948;2024-03-25T04:27:40;2.67;;;2.40;;
20379;SDS011;10349;48.666;8.948;2024-03-25T04:30:07;3.77;;;1.90;;
20379;SDS011;10349;48.666;8.948;2024-03-25T04:32:33;5.30;;;3.17;;
20379;SDS011;10349;48.666;8.948;2024-03-25T04:35:00;2.13;;;1.90;;
20379;SDS011;10349;48.666;8.948;2024-03-25T04:37:26;3.43;;;3.13;;
20379;SDS011;10349;48.666;8.948;2024-03-25T04:39:53;3.00;;;2.70;;
20379;SDS011;10349;48.666;8.948;2024-03-25T04:42:19;3.23;;;2.90;;
20379;SDS011;10349;48.666;8.948;2024-03-25T04:44:45;6.73;;;3.27;;
20379;SDS011;10349;48.666;8.948;2024-03-25T04:47:11;2.83;;;2.50;;
20379;SDS011;10349;48.666;8.948;2024-03-25T04:49:37;6.40;;;3.80;;
20379;SDS011;10349;48.666;8.948;2024-03-25T04:52:03;2.87;;;2.67;;
20379;SDS011;10349;48.666;8.948;2024-03-25T04:54:29;4.70;;;2.80;;
20379;SDS011;10349;48.666;8.948;2024-03-25T04:56:55;3.93;;;2.37;;
20379;SDS011;10349;48.666;8.948;2024-03-25T04:59:21;3.67;;;3.03;;
20379;SDS011;10349;48.666;8.948;2024-03-25T05:01:47;2.40;;;2.20;;
20379;SDS011;10349;48.666;8.948;2024-03-25T05:04:12;6.43;;;2.70;;
20379;SDS011;10349;48.666;8.948;2024-03-25T05:06:38;2.97;;;2.57;;
20379;SDS011;10349;48.666;8.948;2024-03-25T05:09:04;5.20;;;2.63;;
20379;SDS011;10349;48.666;8.948;2024-03-25T05:11:31;3.00;;;2.43;;
20379;SDS011;10349;48.666;8.948;2024-03-25T05:13:57;6.67;;;2.90;;
20379;SDS011;10349;48.666;8.948;2024-03-25T05:16:23;3.47;;;3.17;;
20379;SDS011;10349;48.666;8.948;2024-03-25T05:18:49;7.60;;;2.30;;
20379;SDS011;10349;48.666;8.948;2024-03-25T05:21:14;7.43;;;3.83;;
20379;SDS011;10349;48.666;8.948;2024-03-25T05:23:40;4.43;;;3.13;;
20379;SDS011;10349;48.666;8.948;2024-03-25T05:26:06;3.83;;;3.40;;
20379;SDS011;10349;48.666;8.948;2024-03-25T05:28:32;3.40;;;2.70;;
20379;SDS011;10349;48.666;8.948;2024-03-25T05:31:04;9.20;;;2.77;;
20379;SDS011;10349;48.666;8.948;2024-03-25T05:33:31;4.70;;;2.93;;
20379;SDS011;10349;48.666;8.948;2024-03-25T05:35:58;2.10;;;2.00;;
20379;SDS011;10349;48.666;8.948;2024-03-25T05:38:24;3.90;;;2.30;;
20379;SDS011;10349;48.666;8.948;2024-03-25T05:40:50;3.73;;;2.40;;
20379;SDS011;10349;48.666;8.948;2024-03-25T05:43:16;3.97;;;3.63;;
20379;SDS011;10349;48.666;8.948;2024-03-25T05:45:49;3.60;;;3.00;;
20379;SDS011;10349;48.666;8.948;2024-03-25T05:48:16;2.97;;;2.77;;
20379;SDS011;10349;48.666;8.948;2024-03-25T05:50:42;2.87;;;2.40;;
20379;SDS011;10349;48.666;8.948;2024-03-25T05:53:08;5.87;;;2.47;;
20379;SDS011;10349;48.666;8.948;2024-03-25T05:55:34;3.73;;;3.43;;
20379;SDS011;10349;48.666;8.948;2024-03-25T05:57:59;4.40;;;4.00;;
20379;SDS011;10349;48.666;8.948;2024-03-25T06:00:25;10.13;;;3.83;;
20379;SDS011;10349;48.666;8.948;2024-03-25T06:02:52;4.30;;;3.70;;
20379;SDS011;10349;48.666;8.948;2024-03-25T06:05:19;3.40;;;3.10;;
20379;SDS011;10349;48.666;8.948;2024-03-25T06:07:45;6.57;;;3.90;;
20379;SDS011;10349;48.666;8.948;2024-03-25T06:10:10;5.20;;;2.83;;
20379;SDS011;10349;48.666;8.948;2024-03-25T06:12:36;3.70;;;2.77;;
20379;SDS011;10349;48.666;8.948;2024-03-25T06:15:02;5.63;;;3.33;;
20379;SDS011;10349;48.666;8.948;2024-03-25T06:17:28;3.50;;;3.30;;
20379;SDS011;10349;48.666;8.948;2024-03-25T06:19:54;4.50;;;2.70;;
20379;SDS011;10349;48.666;8.948;2024-03-25T06:22:19;24.07;;;3.77;;
20379;SDS011;10349;48.666;8.948;2024-03-25T06:24:45;4.53;;;2.67;;
20379;SDS011;10349;48.666;8.948;2024-03-25T06:27:11;17.53;;;3.80;;
20379;SDS011;10349;48.666;8.948;2024-03-25T06:29:37;3.50;;;2.50;;
20379;SDS011;10349;48.666;8.948;2024-03-25T06:32:02;7.80;;;3.90;;
20379;SDS011;10349;48.666;8.948;2024-03-25T06:34:47;4.43;;;3.27;;
20379;SDS011;10349;48.666;8.948;2024-03-25T06:37:13;4.87;;;3.97;;
20379;SDS011;10349;48.666;8.948;2024-03-25T06:39:40;4.70;;;3.30;;
20379;SDS011;10349;48.666;8.948;2024-03-25T06:42:07;4.10;;;3.70;;
20379;SDS011;10349;48.666;8.948;2024-03-25T06:44:32;33.20;;;3.80;;
20379;SDS011;10349;48.666;8.948;2024-03-25T06:46:58;2.97;;;2.77;;
20379;SDS011;10349;48.666;8.948;2024-03-25T06:49:24;4.17;;;3.87;;
20379;SDS011;10349;48.666;8.948;2024-03-25T06:51:49;4.37;;;3.97;;
20379;SDS011;10349;48.666;8.948;2024-03-25T06:54:15;3.87;;;3.00;;
20379;SDS011;10349;48.666;8.948;2024-03-25T06:56:40;5.77;;;3.80;;
20379;SDS011;10349;48.666;8.948;2024-03-25T06:59:06;3.50;;;3.13;;
20379;SDS011;10349;48.666;8.948;2024-03-25T07:01:32;5.20;;;4.00;;
20379;SDS011;10349;48.666;8.948;2024-03-25T07:03:58;4.63;;;3.73;;
20379;SDS011;10349;48.666;8.948;2024-03-25T07:06:24;4.90;;;4.40;;
20379;SDS011;10349;48.666;8.948;2024-03-25T07:08:50;10.03;;;4.60;;
20379;SDS011;10349;48.666;8.948;2024-03-25T07:11:16;3.47;;;3.13;;
20379;SDS011;10349;48.666;8.948;2024-03-25T07:13:42;6.93;;;3.47;;
20379;SDS011;10349;48.666;8.948;2024-03-25T07:16:08;3.60;;;3.30;;
20379;SDS011;10349;48.666;8.948;2024-03-25T07:18:34;3.20;;;2.90;;
20379;SDS011;10349;48.666;8.948;2024-03-25T07:20:59;4.43;;;4.03;;
20379;SDS011;10349;48.666;8.948;2024-03-25T07:23:25;4.50;;;4.10;;
20379;SDS011;10349;48.666;8.948;2024-03-25T07:25:51;3.30;;;3.10;;
20379;SDS011;10349;48.666;8.948;2024-03-25T07:28:16;4.00;;;3.40;;
20379;SDS011;10349;48.666;8.948;2024-03-25T07:30:42;4.23;;;3.70;;
20379;SDS011;10349;48.666;8.948;2024-03-25T07:33:09;7.37;;;3.73;;
20379;SDS011;10349;48.666;8.948;2024-03-25T07:35:35;3.73;;;3.13;;
20379;SDS011;10349;48.666;8.948;2024-03-25T07:38:01;4.57;;;2.90;;
20379;SDS011;10349;48.666;8.948;2024-03-25T07:40:28;4.73;;;4.27;;
20379;SDS011;10349;48.666;8.948;2024-03-25T07:42:54;4.80;;;3.50;;
20379;SDS011;10349;48.666;8.948;2024-03-25T07:45:20;6.27;;;3.23;;
20379;SDS011;10349;48.666;8.948;2024-03-25T07:47:45;4.83;;;4.40;;
20379;SDS011;10349;48.666;8.948;2024-03-25T07:50:11;3.80;;;3.60;;
20379;SDS011;10349;48.666;8.948;2024-03-25T07:52:37;5.03;;;3.40;;
20379;SDS011;10349;48.666;8.948;2024-03-25T07:55:08;5.57;;;4.00;;
20379;SDS011;10349;48.666;8.948;2024-03-25T07:57:34;5.73;;;3.87;;
20379;SDS011;10349;48.666;8.948;2024-03-25T08:00:00;5.60;;;3.27;;
20379;SDS011;10349;48.666;8.948;2024-03-25T08:02:26;4.60;;;3.20;;
20379;SDS011;10349;48.666;8.948;2024-03-25T08:04:51;10.73;;;3.83;;
20379;SDS011;10349;48.666;8.948;2024-03-25T08:07:17;5.20;;;4.70;;
20379;SDS011;10349;48.666;8.948;2024-03-25T08:09:42;11.73;;;4.37;;
20379;SDS011;10349;48.666;8.948;2024-03-25T08:12:08;7.00;;;3.63;;
20379;SDS011;10349;48.666;8.948;2024-03-25T08:14:34;4.20;;;3.80;;
20379;SDS011;10349;48.666;8.948;2024-03-25T08:16:59;3.30;;;2.73;;
20379;SDS011;10349;48.666;8.948;2024-03-25T08:19:25;4.67;;;3.33;;
20379;SDS011;10349;48.666;8.948;2024-03-25T08:21:51;7.80;;;3.40;;
20379;SDS011;10349;48.666;8.948;2024-03-25T08:24:17;5.10;;;3.10;;
20379;SDS011;10349;48.666;8.948;2024-03-25T08:26:43;5.83;;;3.67;;
20379;SDS011;10349;48.666;8.948;2024-03-25T08:29:08;3.50;;;3.20;;
20379;SDS011;10349;48.666;8.948;2024-03-25T08:31:34;4.50;;;3.73;;
20379;SDS011;10349;48.666;8.948;2024-03-25T08:34:00;5.83;;;3.77;;
20379;SDS011;10349;48.666;8.948;2024-03-25T08:36:25;4.73;;;3.50;;
20379;SDS011;10349;48.666;8.948;2024-03-25T08:38:51;7.40;;;3.70;;
20379;SDS011;10349;48.666;8.948;2024-03-25T08:41:17;16.60;;;4.10;;
20379;SDS011;10349;48.666;8.948;2024-03-25T08:43:43;4.60;;;3.23;;
20379;SDS011;10349;48.666;8.948;2024-03-25T08:46:09;7.70;;;3.20;;
20379;SDS011;10349;48.666;8.948;2024-03-25T08:48:34;3.20;;;2.87;;
20379;SDS011;10349;48.666;8.948;2024-03-25T08:51:00;3.77;;;3.47;;
20379;SDS011;10349;48.666;8.948;2024-03-25T08:53:26;3.80;;;2.73;;
20379;SDS011;10349;48.666;8.948;2024-03-25T08:55:52;5.20;;;2.93;;
20379;SDS011;10349;48.666;8.948;2024-03-25T08:58:17;2.90;;;2.70;;
20379;SDS011;10349;48.666;8.948;2024-03-25T09:00:43;12.00;;;2.97;;
20379;SDS011;10349;48.666;8.948;2024-03-25T09:03:09;5.03;;;3.00;;
20379;SDS011;10349;48.666;8.948;2024-03-25T09:05:36;3.80;;;3.40;;
20379;SDS011;10349;48.666;8.948;2024-03-25T09:08:04;3.90;;;3.43;;
20379;SDS011;10349;48.666;8.948;2024-03-25T09:10:31;3.10;;;2.80;;
20379;SDS011;10349;48.666;8.948;2024-03-25T09:13:15;3.13;;;2.83;;
20379;SDS011;10349;48.666;8.948;2024-03-25T09:15:41;4.63;;;2.23;;
20379;SDS011;10349;48.666;8.948;2024-03-25T09:18:06;4.47;;;2.63;;
20379;SDS011;10349;48.666;8.948;2024-03-25T09:20:32;5.30;;;2.67;;
20379;SDS011;10349;48.666;8.948;2024-03-25T09:22:57;3.20;;;2.90;;
20379;SDS011;10349;48.666;8.948;2024-03-25T09:25:23;6.40;;;2.63;;
20379;SDS011;10349;48.666;8.948;2024-03-25T09:27:49;2.40;;;2.20;;
20379;SDS011;10349;48.666;8.948;2024-03-25T09:30:16;5.17;;;2.70;;
20379;SDS011;10349;48.666;8.948;2024-03-25T09:32:43;2.70;;;2.13;;
20379;SDS011;10349;48.666;8.948;2024-03-25T09:35:09;3.00;;;2.13;;
20379;SDS011;10349;48.666;8.948;2024-03-25T09:37:35;4.20;;;2.83;;
20379;SDS011;10349;48.666;8.948;2024-03-25T09:40:01;3.27;;;2.90;;
20379;SDS011;10349;48.666;8.948;2024-03-25T09:42:34;3.43;;;2.70;;
20379;SDS011;10349;48.666;8.948;2024-03-25T09:45:17;3.77;;;3.00;;
20379;SDS011;10349;48.666;8.948;2024-03-25T09:47:47;3.73;;;2.60;;
20379;SDS011;10349;48.666;8.948;2024-03-25T09:50:13;2.80;;;2.03;;
20379;SDS011;10349;48.666;8.948;2024-03-25T09:52:44;2.50;;;2.30;;
20379;SDS011;10349;48.666;8.948;2024-03-25T09:55:11;10.00;;;2.10;;
20379;SDS011;10349;48.666;8.948;2024-03-25T09:57:37;1.97;;;1.87;;
20379;SDS011;10349;48.666;8.948;2024-03-25T10:00:06;2.80;;;2.57;;
20379;SDS011;10349;48.666;8.948;2024-03-25T10:02:49;3.07;;;1.93;;
20379;SDS011;10349;48.666;8.948;2024-03-25T10:05:14;3.37;;;3.07;;
20379;SDS011;10349;48.666;8.948;2024-03-25T10:07:40;2.37;;;2.17;;
20379;SDS011;10349;48.666;8.948;2024-03-25T10:10:06;4.50;;;2.07;;
20379;SDS011;10349;48.666;8.948;2024-03-25T10:12:32;1.97;;;1.87;;
20379;SDS011;10349;48.666;8.948;2024-03-25T10:15:00;3.07;;;2.77;;
20379;SDS011;10349;48.666;8.948;2024-03-25T10:17:26;3.40;;;2.30;;
20379;SDS011;10349;48.666;8.948;2024-03-25T10:19:54;2.90;;;2.67;;
20379;SDS011;10349;48.666;8.948;2024-03-25T10:22:20;2.17;;;2.07;;
20379;SDS011;10349;48.666;8.948;2024-03-25T10:24:46;4.57;;;2.60;;
20379;SDS011;10349;48.666;8.948;2024-03-25T10:27:19;2.23;;;2.00;;
20379;SDS011;10349;48.666;8.948;2024-03-25T10:29:46;5.30;;;2.17;;
20379;SDS011;10349;48.666;8.948;2024-03-25T10:32:13;4.80;;;2.30;;
20379;SDS011;10349;48.666;8.948;2024-03-25T10:34:39;2.83;;;2.17;;
20379;SDS011;10349;48.666;8.948;2024-03-25T10:37:06;4.87;;;2.37;;
20379;SDS011;10349;48.666;8.948;2024-03-25T10:39:34;4.97;;;3.07;;
20379;SDS011;10349;48.666;8.948;2024-03-25T10:42:05;1.83;;;1.63;;
20379;SDS011;10349;48.666;8.948;2024-03-25T10:44:31;7.47;;;2.30;;
20379;SDS011;10349;48.666;8.948;2024-03-25T10:47:01;7.83;;;1.97;;
20379;SDS011;10349;48.666;8.948;2024-03-25T10:49:49;3.00;;;1.67;;
20379;SDS011;10349;48.666;8.948;2024-03-25T10:52:19;2.13;;;1.93;;
20379;SDS011;10349;48.666;8.948;2024-03-25T10:54:46;2.50;;;2.30;;
20379;SDS011;10349;48.666;8.948;2024-03-25T10:57:13;4.90;;;2.20;;
20379;SDS011;10349;48.666;8.948;2024-03-25T10:59:39;6.70;;;2.63;;
20379;SDS011;10349;48.666;8.948;2024-03-25T11:02:08;2.90;;;1.60;;
20379;SDS011;10349;48.666;8.948;2024-03-25T11:04:34;2.20;;;2.10;;
20379;SDS011;10349;48.666;8.948;2024-03-25T11:07:11;5.17;;;2.47;;
20379;SDS011;10349;48.666;8.948;2024-03-25T11:09:38;5.43;;;1.97;;
20379;SDS011;10349;48.666;8.948;2024-03-25T11:12:05;2.03;;;1.83;;
20379;SDS011;10349;48.666;8.948;2024-03-25T11:14:31;1.83;;;1.73;;
20379;SDS011;10349;48.666;8.948;2024-03-25T11:16:57;2.23;;;2.00;;
20379;SDS011;10349;48.666;8.948;2024-03-25T11:19:25;2.87;;;2.67;;
20379;SDS011;10349;48.666;8.948;2024-03-25T11:21:52;4.20;;;2.03;;
20379;SDS011;10349;48.666;8.948;2024-03-25T11:24:27;1.50;;;1.40;;
20379;SDS011;10349;48.666;8.948;2024-03-25T11:26:54;1.90;;;1.60;;
20379;SDS011;10349;48.666;8.948;2024-03-25T11:29:19;1.53;;;1.43;;
20379;SDS011;10349;48.666;8.948;2024-03-25T11:31:45;2.60;;;1.80;;
20379;SDS011;10349;48.666;8.948;2024-03-25T11:34:18;2.27;;;1.93;;
20379;SDS011;10349;48.666;8.948;2024-03-25T11:36:44;1.73;;;1.63;;
20379;SDS011;10349;48.666;8.948;2024-03-25T11:39:09;1.80;;;1.70;;
20379;SDS011;10349;48.666;8.948;2024-03-25T11:41:42;8.77;;;1.73;;
20379;SDS011;10349;48.666;8.948;2024-03-25T11:44:08;1.43;;;1.33;;
20379;SDS011;10349;48.666;8.948;2024-03-25T11:46:38;1.50;;;1.40;;
20379;SDS011;10349;48.666;8.948;2024-03-25T11:49:07;2.00;;;1.73;;
20379;SDS011;10349;48.666;8.948;2024-03-25T11:51:40;1.93;;;1.70;;
20379;SDS011;10349;48.666;8.948;2024-03-25T11:54:10;2.07;;;1.77;;
20379;SDS011;10349;48.666;8.948;2024-03-25T11:56:36;1.70;;;1.40;;
20379;SDS011;10349;48.666;8.948;2024-03-25T11:59:05;1.80;;;1.70;;
20379;SDS011;10349;48.666;8.948;2024-03-25T12:01:31;2.20;;;1.60;;
20379;SDS011;10349;48.666;8.948;2024-03-25T12:04:08;4.73;;;2.07;;
20379;SDS011;10349;48.666;8.948;2024-03-25T12:06:37;1.93;;;1.70;;
20379;SDS011;10349;48.666;8.948;2024-03-25T12:09:03;7.20;;;1.80;;
20379;SDS011;10349;48.666;8.948;2024-03-25T12:11:47;2.60;;;2.00;;
20379;SDS011;10349;48.666;8.948;2024-03-25T12:14:13;3.20;;;2.90;;
20379;SDS011;10349;48.666;8.948;2024-03-25T12:16:41;2.10;;;1.90;;
20379;SDS011;10349;48.666;8.948;2024-03-25T12:19:07;2.00;;;1.90;;
20379;SDS011;10349;48.666;8.948;2024-03-25T12:21:32;2.13;;;2.00;;
20379;SDS011;10349;48.666;8.948;2024-03-25T12:23:59;7.20;;;2.30;;
20379;SDS011;10349;48.666;8.948;2024-03-25T12:26:25;2.13;;;1.83;;
20379;SDS011;10349;48.666;8.948;2024-03-25T12:28:51;2.50;;;1.53;;
20379;SDS011;10349;48.666;8.948;2024-03-25T12:31:17;1.73;;;1.63;;
20379;SDS011;10349;48.666;8.948;2024-03-25T12:33:43;1.60;;;1.50;;
20379;SDS011;10349;48.666;8.948;2024-03-25T12:36:11;2.50;;;1.70;;
20379;SDS011;10349;48.666;8.948;2024-03-25T12:38:37;2.93;;;2.07;;
20379;SDS011;10349;48.666;8.948;2024-03-25T12:41:10;1.70;;;1.60;;
20379;SDS011;10349;48.666;8.948;2024-03-25T12:43:37;2.30;;;1.60;;
20379;SDS011;10349;48.666;8.948;2024-03-25T12:46:07;2.00;;;1.80;;
20379;SDS011;10349;48.666;8.948;2024-03-25T12:48:36;4.83;;;2.20;;
20379;SDS011;10349;48.666;8.948;2024-03-25T12:51:02;2.17;;;1.63;;
20379;SDS011;10349;48.666;8.948;2024-03-25T12:53:28;1.90;;;1.80;;
20379;SDS011;10349;48.666;8.948;2024-03-25T12:55:54;2.37;;;1.80;;
20379;SDS011;10349;48.666;8.948;2024-03-25T12:58:20;2.87;;;1.40;;
20379;SDS011;10349;48.666;8.948;2024-03-25T13:00:45;3.30;;;1.80;;
20379;SDS011;10349;48.666;8.948;2024-03-25T13:03:11;1.83;;;1.73;;
20379;SDS011;10349;48.666;8.948;2024-03-25T13:05:37;1.87;;;1.77;;
20379;SDS011;10349;48.666;8.948;2024-03-25T13:08:03;1.67;;;1.57;;
20379;SDS011;10349;48.666;8.948;2024-03-25T13:10:29;2.90;;;2.00;;
20379;SDS011;10349;48.666;8.948;2024-03-25T13:12:56;2.23;;;1.77;;
20379;SDS011;10349;48.666;8.948;2024-03-25T13:15:21;1.40;;;1.30;;
20379;SDS011;10349;48.666;8.948;2024-03-25T13:17:48;2.10;;;1.50;;
20379;SDS011;10349;48.666;8.948;2024-03-25T13:20:13;1.60;;;1.50;;
20379;SDS011;10349;48.666;8.948;2024-03-25T13:22:39;1.80;;;1.70;;
20379;SDS011;10349;48.666;8.948;2024-03-25T13:25:05;3.43;;;1.57;;
20379;SDS011;10349;48.666;8.948;2024-03-25T13:27:31;1.97;;;1.30;;
20379;SDS011;10349;48.666;8.948;2024-03-25T13:29:57;1.27;;;1.17;;
20379;SDS011;10349;48.666;8.948;2024-03-25T13:32:23;1.93;;;1.57;;
20379;SDS011;10349;48.666;8.948;2024-03-25T13:34:49;3.37;;;2.07;;
20379;SDS011;10349;48.666;8.948;2024-03-25T13:37:15;1.70;;;1.60;;
20379;SDS011;10349;48.666;8.948;2024-03-25T13:39:41;1.47;;;1.20;;
20379;SDS011;10349;48.666;8.948;2024-03-25T13:42:07;1.57;;;1.47;;
20379;SDS011;10349;48.666;8.948;2024-03-25T13:44:33;1.43;;;1.33;;
20379;SDS011;10349;48.666;8.948;2024-03-25T13:46:58;1.57;;;1.47;;
20379;SDS011;10349;48.666;8.948;2024-03-25T13:49:24;1.70;;;1.37;;
20379;SDS011;10349;48.666;8.948;2024-03-25T13:51:56;1.80;;;1.50;;
20379;SDS011;10349;48.666;8.948;2024-03-25T13:54:24;3.63;;;1.43;;
20379;SDS011;10349;48.666;8.948;2024-03-25T13:56:50;1.63;;;1.23;;
20379;SDS011;10349;48.666;8.948;2024-03-25T13:59:16;1.50;;;1.40;;
20379;SDS011;10349;48.666;8.948;2024-03-25T14:01:42;1.73;;;1.50;;
20379;SDS011;10349;48.666;8.948;2024-03-25T14:04:07;2.30;;;2.20;;
20379;SDS011;10349;48.666;8.948;2024-03-25T14:06:33;5.00;;;1.70;;
20379;SDS011;10349;48.666;8.948;2024-03-25T14:09:01;2.33;;;2.13;;
20379;SDS011;10349;48.666;8.948;2024-03-25T14:11:30;1.93;;;1.23;;
20379;SDS011;10349;48.666;8.948;2024-03-25T14:13:56;3.47;;;1.90;;
20379;SDS011;10349;48.666;8.948;2024-03-25T14:16:22;2.00;;;1.90;;
20379;SDS011;10349;48.666;8.948;2024-03-25T14:18:48;2.60;;;2.40;;
20379;SDS011;10349;48.666;8.948;2024-03-25T14:21:13;1.43;;;1.33;;
20379;SDS011;10349;48.666;8.948;2024-03-25T14:23:39;1.77;;;1.67;;
20379;SDS011;10349;48.666;8.948;2024-03-25T14:26:09;1.53;;;1.43;;
20379;SDS011;10349;48.666;8.948;2024-03-25T14:28:35;1.70;;;1.53;;
20379;SDS011;10349;48.666;8.948;2024-03-25T14:31:02;1.80;;;1.70;;
20379;SDS011;10349;48.666;8.948;2024-03-25T14:33:28;3.93;;;2.20;;
20379;SDS011;10349;48.666;8.948;2024-03-25T14:35:54;2.00;;;1.90;;
20379;SDS011;10349;48.666;8.948;2024-03-25T14:38:20;1.73;;;1.60;;
20379;SDS011;10349;48.666;8.948;2024-03-25T14:40:46;2.37;;;1.63;;
20379;SDS011;10349;48.666;8.948;2024-03-25T14:43:12;1.57;;;1.43;;
20379;SDS011;10349;48.666;8.948;2024-03-25T14:45:38;2.23;;;1.60;;
20379;SDS011;10349;48.666;8.948;2024-03-25T14:48:04;2.00;;;1.67;;